Sedro Woolley, Washington
Current Conditions -  °F | °C
As of 4:35 AM on Sunday 21 Dec 2014 (Local Time) from KBVS Reporting Station
Broken Clouds Broken Clouds  
Wind Chill: 52°   Ceiling: 8000
Heat Index: 52°   Visibility: 10mi
Dew Point: 45°   Wind: 6mph
Humidity: 76%   Direction: 250°WSW
Pressure: 29.73"   Gusts: NA
Location:  48.54°N, 122.19°W
Report Text: KBVS 211235Z AUTO 25005KT 10SM FEW049 SCT060 BKN080 11/07 A2973 RMK A01 P001
Loading
Personal Weather Stations






























Interactive Weather Map New forecast layout! Learn more

10-Day Weather Forecast

Advertisements
Track Severe Weather on mobile